sensor_id;sensor_type;location;lat;lon;timestamp;P1;durP1;ratioP1;P2;durP2;ratioP2
27758;SDS011;15148;48.972;12.794;2023-04-15T00:00:47;5.05;;;4.55;;
27758;SDS011;15148;48.972;12.794;2023-04-15T00:05:51;6.20;;;4.97;;
27758;SDS011;15148;48.972;12.794;2023-04-15T00:10:53;9.38;;;5.07;;
27758;SDS011;15148;48.972;12.794;2023-04-15T00:15:54;5.72;;;5.22;;
27758;SDS011;15148;48.972;12.794;2023-04-15T00:20:57;5.93;;;5.30;;
27758;SDS011;15148;48.972;12.794;2023-04-15T00:25:59;5.50;;;5.00;;
27758;SDS011;15148;48.972;12.794;2023-04-15T00:31:00;5.18;;;4.72;;
27758;SDS011;15148;48.972;12.794;2023-04-15T00:36:03;4.85;;;4.30;;
27758;SDS011;15148;48.972;12.794;2023-04-15T00:41:06;6.47;;;5.63;;
27758;SDS011;15148;48.972;12.794;2023-04-15T00:46:09;6.75;;;6.05;;
27758;SDS011;15148;48.972;12.794;2023-04-15T00:51:14;6.88;;;6.18;;
27758;SDS011;15148;48.972;12.794;2023-04-15T00:56:16;4.97;;;4.50;;
27758;SDS011;15148;48.972;12.794;2023-04-15T01:01:20;5.47;;;5.00;;
27758;SDS011;15148;48.972;12.794;2023-04-15T01:06:24;5.70;;;4.40;;
27758;SDS011;15148;48.972;12.794;2023-04-15T01:11:27;5.10;;;4.60;;
27758;SDS011;15148;48.972;12.794;2023-04-15T01:16:30;4.78;;;4.00;;
27758;SDS011;15148;48.972;12.794;2023-04-15T01:21:32;3.60;;;3.30;;
27758;SDS011;15148;48.972;12.794;2023-04-15T01:26:38;4.65;;;4.25;;
27758;SDS011;15148;48.972;12.794;2023-04-15T01:31:51;4.80;;;4.38;;
27758;SDS011;15148;48.972;12.794;2023-04-15T01:36:54;6.43;;;5.75;;
27758;SDS011;15148;48.972;12.794;2023-04-15T01:41:56;8.38;;;6.03;;
27758;SDS011;15148;48.972;12.794;2023-04-15T01:46:58;6.97;;;5.32;;
27758;SDS011;15148;48.972;12.794;2023-04-15T01:52:00;5.45;;;4.97;;
27758;SDS011;15148;48.972;12.794;2023-04-15T01:57:02;5.45;;;4.95;;
27758;SDS011;15148;48.972;12.794;2023-04-15T02:02:05;5.93;;;5.43;;
27758;SDS011;15148;48.972;12.794;2023-04-15T02:07:06;8.07;;;5.30;;
27758;SDS011;15148;48.972;12.794;2023-04-15T02:12:09;6.00;;;5.40;;
27758;SDS011;15148;48.972;12.794;2023-04-15T02:17:10;5.38;;;4.88;;
27758;SDS011;15148;48.972;12.794;2023-04-15T02:22:12;4.70;;;4.30;;
27758;SDS011;15148;48.972;12.794;2023-04-15T02:27:19;5.07;;;4.47;;
27758;SDS011;15148;48.972;12.794;2023-04-15T02:32:23;4.68;;;4.28;;
27758;SDS011;15148;48.972;12.794;2023-04-15T02:37:28;4.10;;;3.80;;
27758;SDS011;15148;48.972;12.794;2023-04-15T02:42:31;3.50;;;3.20;;
27758;SDS011;15148;48.972;12.794;2023-04-15T02:47:35;5.03;;;3.78;;
27758;SDS011;15148;48.972;12.794;2023-04-15T02:52:39;3.33;;;3.03;;
27758;SDS011;15148;48.972;12.794;2023-04-15T02:57:42;3.65;;;2.80;;
27758;SDS011;15148;48.972;12.794;2023-04-15T03:02:45;2.25;;;2.08;;
27758;SDS011;15148;48.972;12.794;2023-04-15T03:07:47;2.60;;;2.40;;
27758;SDS011;15148;48.972;12.794;2023-04-15T03:12:50;2.83;;;2.22;;
27758;SDS011;15148;48.972;12.794;2023-04-15T03:17:54;3.25;;;2.50;;
27758;SDS011;15148;48.972;12.794;2023-04-15T03:22:58;2.97;;;2.13;;
27758;SDS011;15148;48.972;12.794;2023-04-15T03:28:00;2.50;;;2.30;;
27758;SDS011;15148;48.972;12.794;2023-04-15T03:33:02;3.83;;;2.33;;
27758;SDS011;15148;48.972;12.794;2023-04-15T03:38:04;3.15;;;2.85;;
27758;SDS011;15148;48.972;12.794;2023-04-15T03:43:06;1.60;;;1.50;;
27758;SDS011;15148;48.972;12.794;2023-04-15T03:48:07;2.85;;;2.15;;
27758;SDS011;15148;48.972;12.794;2023-04-15T03:53:20;1.85;;;1.60;;
27758;SDS011;15148;48.972;12.794;2023-04-15T03:58:22;1.85;;;1.38;;
27758;SDS011;15148;48.972;12.794;2023-04-15T04:03:24;1.20;;;1.10;;
27758;SDS011;15148;48.972;12.794;2023-04-15T04:08:27;1.48;;;0.60;;
27758;SDS011;15148;48.972;12.794;2023-04-15T04:13:29;0.43;;;0.43;;
27758;SDS011;15148;48.972;12.794;2023-04-15T04:18:31;0.40;;;0.40;;
27758;SDS011;15148;48.972;12.794;2023-04-15T04:28:39;0.50;;;0.50;;
27758;SDS011;15148;48.972;12.794;2023-04-15T04:33:41;0.50;;;0.50;;
27758;SDS011;15148;48.972;12.794;2023-04-15T04:38:43;0.30;;;0.30;;
27758;SDS011;15148;48.972;12.794;2023-04-15T04:43:45;0.60;;;0.60;;
27758;SDS011;15148;48.972;12.794;2023-04-15T04:48:47;27.75;;;16.40;;
27758;SDS011;15148;48.972;12.794;2023-04-15T04:53:49;3.45;;;2.55;;
27758;SDS011;15148;48.972;12.794;2023-04-15T04:58:51;1.35;;;1.25;;
27758;SDS011;15148;48.972;12.794;2023-04-15T05:03:53;1.50;;;1.40;;
27758;SDS011;15148;48.972;12.794;2023-04-15T05:08:55;1.17;;;1.00;;
27758;SDS011;15148;48.972;12.794;2023-04-15T05:13:57;0.60;;;0.60;;
27758;SDS011;15148;48.972;12.794;2023-04-15T05:19:00;4.38;;;1.92;;
27758;SDS011;15148;48.972;12.794;2023-04-15T05:24:02;1.73;;;1.63;;
27758;SDS011;15148;48.972;12.794;2023-04-15T05:29:04;3.08;;;2.10;;
27758;SDS011;15148;48.972;12.794;2023-04-15T05:34:06;4.25;;;2.78;;
27758;SDS011;15148;48.972;12.794;2023-04-15T05:39:08;10.20;;;5.63;;
27758;SDS011;15148;48.972;12.794;2023-04-15T05:44:10;6.03;;;3.13;;
27758;SDS011;15148;48.972;12.794;2023-04-15T05:49:12;79.80;;;35.83;;
27758;SDS011;15148;48.972;12.794;2023-04-15T05:54:14;78.00;;;38.45;;
27758;SDS011;15148;48.972;12.794;2023-04-15T05:59:18;3.30;;;1.90;;
27758;SDS011;15148;48.972;12.794;2023-04-15T06:04:20;4.88;;;2.70;;
27758;SDS011;15148;48.972;12.794;2023-04-15T06:09:23;1.20;;;0.80;;
27758;SDS011;15148;48.972;12.794;2023-04-15T06:14:25;7.35;;;5.22;;
27758;SDS011;15148;48.972;12.794;2023-04-15T06:19:26;6.13;;;4.35;;
27758;SDS011;15148;48.972;12.794;2023-04-15T06:24:28;4.20;;;2.40;;
27758;SDS011;15148;48.972;12.794;2023-04-15T06:29:30;0.60;;;0.60;;
27758;SDS011;15148;48.972;12.794;2023-04-15T06:34:32;0.55;;;0.50;;
27758;SDS011;15148;48.972;12.794;2023-04-15T06:39:34;0.50;;;0.50;;
27758;SDS011;15148;48.972;12.794;2023-04-15T06:44:36;0.30;;;0.30;;
27758;SDS011;15148;48.972;12.794;2023-04-15T06:49:38;0.30;;;0.30;;
27758;SDS011;15148;48.972;12.794;2023-04-15T06:54:41;1.10;;;0.77;;
27758;SDS011;15148;48.972;12.794;2023-04-15T06:59:43;0.85;;;0.85;;
27758;SDS011;15148;48.972;12.794;2023-04-15T07:04:44;20.92;;;12.07;;
27758;SDS011;15148;48.972;12.794;2023-04-15T07:09:46;20.75;;;9.60;;
27758;SDS011;15148;48.972;12.794;2023-04-15T07:14:48;13.45;;;7.47;;
27758;SDS011;15148;48.972;12.794;2023-04-15T07:19:50;11.85;;;6.30;;
27758;SDS011;15148;48.972;12.794;2023-04-15T07:24:52;7.30;;;3.60;;
27758;SDS011;15148;48.972;12.794;2023-04-15T07:29:54;1.50;;;0.95;;
27758;SDS011;15148;48.972;12.794;2023-04-15T07:34:55;1.85;;;1.75;;
27758;SDS011;15148;48.972;12.794;2023-04-15T07:39:57;1.13;;;1.13;;
27758;SDS011;15148;48.972;12.794;2023-04-15T07:44:59;0.70;;;0.70;;
27758;SDS011;15148;48.972;12.794;2023-04-15T07:50:01;1.20;;;1.10;;
27758;SDS011;15148;48.972;12.794;2023-04-15T07:55:06;1.10;;;1.00;;
27758;SDS011;15148;48.972;12.794;2023-04-15T08:00:09;1.25;;;1.10;;
27758;SDS011;15148;48.972;12.794;2023-04-15T08:05:14;1.42;;;1.33;;
27758;SDS011;15148;48.972;12.794;2023-04-15T08:10:16;1.00;;;1.00;;
27758;SDS011;15148;48.972;12.794;2023-04-15T08:15:18;0.80;;;0.80;;
27758;SDS011;15148;48.972;12.794;2023-04-15T08:20:20;1.17;;;0.80;;
27758;SDS011;15148;48.972;12.794;2023-04-15T08:25:22;0.85;;;0.85;;
27758;SDS011;15148;48.972;12.794;2023-04-15T08:30:24;0.98;;;0.80;;
27758;SDS011;15148;48.972;12.794;2023-04-15T08:35:26;1.10;;;1.00;;
27758;SDS011;15148;48.972;12.794;2023-04-15T08:40:29;0.88;;;0.88;;
27758;SDS011;15148;48.972;12.794;2023-04-15T08:45:41;0.77;;;0.77;;
27758;SDS011;15148;48.972;12.794;2023-04-15T08:50:47;1.10;;;0.90;;
27758;SDS011;15148;48.972;12.794;2023-04-15T08:55:50;0.65;;;0.65;;
27758;SDS011;15148;48.972;12.794;2023-04-15T09:00:53;7.43;;;4.78;;
27758;SDS011;15148;48.972;12.794;2023-04-15T09:05:56;0.63;;;0.63;;
27758;SDS011;15148;48.972;12.794;2023-04-15T09:11:00;0.57;;;0.45;;
27758;SDS011;15148;48.972;12.794;2023-04-15T09:16:03;0.63;;;0.63;;
27758;SDS011;15148;48.972;12.794;2023-04-15T09:21:07;0.77;;;0.73;;
27758;SDS011;15148;48.972;12.794;2023-04-15T09:26:11;0.70;;;0.70;;
27758;SDS011;15148;48.972;12.794;2023-04-15T09:31:13;0.45;;;0.45;;
27758;SDS011;15148;48.972;12.794;2023-04-15T09:36:15;0.30;;;0.30;;
27758;SDS011;15148;48.972;12.794;2023-04-15T09:41:17;0.40;;;0.40;;
27758;SDS011;15148;48.972;12.794;2023-04-15T09:46:19;0.50;;;0.50;;
27758;SDS011;15148;48.972;12.794;2023-04-15T09:51:40;0.20;;;0.20;;
27758;SDS011;15148;48.972;12.794;2023-04-15T09:56:54;0.30;;;0.30;;
27758;SDS011;15148;48.972;12.794;2023-04-15T10:01:56;0.30;;;0.30;;
27758;SDS011;15148;48.972;12.794;2023-04-15T10:06:58;0.47;;;0.40;;
27758;SDS011;15148;48.972;12.794;2023-04-15T10:12:04;1.17;;;0.55;;
27758;SDS011;15148;48.972;12.794;2023-04-15T10:17:06;5.68;;;3.35;;
27758;SDS011;15148;48.972;12.794;2023-04-15T10:22:11;0.40;;;0.40;;
27758;SDS011;15148;48.972;12.794;2023-04-15T10:27:16;0.55;;;0.55;;
27758;SDS011;15148;48.972;12.794;2023-04-15T10:32:19;0.40;;;0.40;;
27758;SDS011;15148;48.972;12.794;2023-04-15T10:37:24;0.63;;;0.63;;
27758;SDS011;15148;48.972;12.794;2023-04-15T10:42:36;0.52;;;0.52;;
27758;SDS011;15148;48.972;12.794;2023-04-15T10:47:38;0.60;;;0.60;;
27758;SDS011;15148;48.972;12.794;2023-04-15T10:52:39;1.13;;;0.60;;
27758;SDS011;15148;48.972;12.794;2023-04-15T10:57:42;1.30;;;0.70;;
27758;SDS011;15148;48.972;12.794;2023-04-15T11:02:46;0.90;;;0.82;;
27758;SDS011;15148;48.972;12.794;2023-04-15T11:07:53;0.87;;;0.87;;
27758;SDS011;15148;48.972;12.794;2023-04-15T11:13:02;1.42;;;1.30;;
27758;SDS011;15148;48.972;12.794;2023-04-15T11:28:34;1.67;;;1.33;;
27758;SDS011;15148;48.972;12.794;2023-04-15T11:33:58;2.13;;;1.23;;
27758;SDS011;15148;48.972;12.794;2023-04-15T11:39:01;1.40;;;1.30;;
27758;SDS011;15148;48.972;12.794;2023-04-15T11:44:16;1.40;;;1.30;;
27758;SDS011;15148;48.972;12.794;2023-04-15T11:49:28;1.30;;;1.20;;
27758;SDS011;15148;48.972;12.794;2023-04-15T11:54:35;1.42;;;1.10;;
27758;SDS011;15148;48.972;12.794;2023-04-15T11:59:43;1.25;;;1.17;;
27758;SDS011;15148;48.972;12.794;2023-04-15T12:04:46;1.48;;;1.38;;
27758;SDS011;15148;48.972;12.794;2023-04-15T12:09:53;2.17;;;1.75;;
27758;SDS011;15148;48.972;12.794;2023-04-15T12:14:56;1.73;;;1.63;;
27758;SDS011;15148;48.972;12.794;2023-04-15T12:19:59;1.98;;;1.77;;
27758;SDS011;15148;48.972;12.794;2023-04-15T12:25:01;2.33;;;1.65;;
27758;SDS011;15148;48.972;12.794;2023-04-15T12:30:04;2.50;;;2.30;;
27758;SDS011;15148;48.972;12.794;2023-04-15T12:35:06;1.58;;;1.38;;
27758;SDS011;15148;48.972;12.794;2023-04-15T12:40:09;1.50;;;1.30;;
27758;SDS011;15148;48.972;12.794;2023-04-15T12:45:11;2.97;;;1.63;;
27758;SDS011;15148;48.972;12.794;2023-04-15T12:50:13;1.95;;;1.20;;
27758;SDS011;15148;48.972;12.794;2023-04-15T12:55:15;0.82;;;0.82;;
27758;SDS011;15148;48.972;12.794;2023-04-15T13:00:19;1.70;;;1.60;;
27758;SDS011;15148;48.972;12.794;2023-04-15T13:05:21;2.17;;;1.40;;
27758;SDS011;15148;48.972;12.794;2023-04-15T13:10:23;1.83;;;1.60;;
27758;SDS011;15148;48.972;12.794;2023-04-15T13:15:25;2.10;;;1.90;;
27758;SDS011;15148;48.972;12.794;2023-04-15T13:20:26;3.00;;;1.85;;
27758;SDS011;15148;48.972;12.794;2023-04-15T13:25:28;2.03;;;1.85;;
27758;SDS011;15148;48.972;12.794;2023-04-15T13:30:31;1.90;;;1.80;;
27758;SDS011;15148;48.972;12.794;2023-04-15T13:35:32;2.72;;;1.80;;
27758;SDS011;15148;48.972;12.794;2023-04-15T13:40:34;1.88;;;1.67;;
27758;SDS011;15148;48.972;12.794;2023-04-15T13:45:36;1.80;;;1.70;;
27758;SDS011;15148;48.972;12.794;2023-04-15T13:50:39;2.30;;;2.10;;
27758;SDS011;15148;48.972;12.794;2023-04-15T13:55:45;2.13;;;2.03;;
27758;SDS011;15148;48.972;12.794;2023-04-15T14:00:47;3.35;;;2.75;;
27758;SDS011;15148;48.972;12.794;2023-04-15T14:05:50;2.72;;;2.47;;
27758;SDS011;15148;48.972;12.794;2023-04-15T14:10:56;2.97;;;2.67;;
27758;SDS011;15148;48.972;12.794;2023-04-15T14:15:58;3.58;;;3.28;;
27758;SDS011;15148;48.972;12.794;2023-04-15T14:21:00;3.22;;;2.92;;
27758;SDS011;15148;48.972;12.794;2023-04-15T14:26:03;3.38;;;2.88;;
27758;SDS011;15148;48.972;12.794;2023-04-15T14:31:05;2.80;;;2.60;;
27758;SDS011;15148;48.972;12.794;2023-04-15T14:36:07;3.58;;;3.10;;
27758;SDS011;15148;48.972;12.794;2023-04-15T14:41:10;3.00;;;2.80;;
27758;SDS011;15148;48.972;12.794;2023-04-15T14:46:12;2.75;;;2.55;;
27758;SDS011;15148;48.972;12.794;2023-04-15T14:51:14;2.88;;;2.67;;
27758;SDS011;15148;48.972;12.794;2023-04-15T14:56:16;4.35;;;3.55;;
27758;SDS011;15148;48.972;12.794;2023-04-15T15:01:18;4.20;;;3.78;;
27758;SDS011;15148;48.972;12.794;2023-04-15T15:06:21;4.78;;;4.38;;
27758;SDS011;15148;48.972;12.794;2023-04-15T15:11:23;4.43;;;4.03;;
27758;SDS011;15148;48.972;12.794;2023-04-15T15:16:24;4.80;;;4.30;;
27758;SDS011;15148;48.972;12.794;2023-04-15T15:21:28;4.70;;;4.30;;
27758;SDS011;15148;48.972;12.794;2023-04-15T15:26:29;5.28;;;4.75;;
27758;SDS011;15148;48.972;12.794;2023-04-15T15:31:33;5.13;;;4.53;;
27758;SDS011;15148;48.972;12.794;2023-04-15T15:36:35;4.53;;;4.07;;
27758;SDS011;15148;48.972;12.794;2023-04-15T15:41:37;5.03;;;4.50;;
27758;SDS011;15148;48.972;12.794;2023-04-15T15:46:38;6.97;;;5.13;;
27758;SDS011;15148;48.972;12.794;2023-04-15T15:51:41;6.18;;;5.50;;
27758;SDS011;15148;48.972;12.794;2023-04-15T15:56:43;6.35;;;5.35;;
27758;SDS011;15148;48.972;12.794;2023-04-15T16:01:45;6.22;;;5.15;;
27758;SDS011;15148;48.972;12.794;2023-04-15T16:06:48;6.57;;;5.72;;
27758;SDS011;15148;48.972;12.794;2023-04-15T16:11:50;6.18;;;5.57;;
27758;SDS011;15148;48.972;12.794;2023-04-15T16:16:52;7.13;;;6.43;;
27758;SDS011;15148;48.972;12.794;2023-04-15T16:21:54;6.57;;;5.88;;
27758;SDS011;15148;48.972;12.794;2023-04-15T16:26:56;7.57;;;5.85;;
27758;SDS011;15148;48.972;12.794;2023-04-15T16:31:59;7.85;;;5.90;;
27758;SDS011;15148;48.972;12.794;2023-04-15T16:37:02;5.68;;;4.97;;
27758;SDS011;15148;48.972;12.794;2023-04-15T16:42:04;6.35;;;5.75;;
27758;SDS011;15148;48.972;12.794;2023-04-15T16:47:05;7.32;;;6.10;;
27758;SDS011;15148;48.972;12.794;2023-04-15T16:52:09;7.30;;;6.60;;
27758;SDS011;15148;48.972;12.794;2023-04-15T16:57:11;9.23;;;7.75;;
27758;SDS011;15148;48.972;12.794;2023-04-15T17:02:13;9.13;;;7.93;;
27758;SDS011;15148;48.972;12.794;2023-04-15T17:07:15;9.38;;;8.40;;
27758;SDS011;15148;48.972;12.794;2023-04-15T17:12:17;8.60;;;7.70;;
27758;SDS011;15148;48.972;12.794;2023-04-15T17:17:19;10.32;;;7.85;;
27758;SDS011;15148;48.972;12.794;2023-04-15T17:22:22;8.07;;;7.28;;
27758;SDS011;15148;48.972;12.794;2023-04-15T17:27:24;11.77;;;10.57;;
27758;SDS011;15148;48.972;12.794;2023-04-15T17:32:28;7.10;;;6.40;;
27758;SDS011;15148;48.972;12.794;2023-04-15T17:37:34;6.50;;;5.82;;
27758;SDS011;15148;48.972;12.794;2023-04-15T17:42:36;9.02;;;8.02;;
27758;SDS011;15148;48.972;12.794;2023-04-15T17:47:38;6.85;;;6.15;;
27758;SDS011;15148;48.972;12.794;2023-04-15T17:52:40;8.07;;;7.28;;
27758;SDS011;15148;48.972;12.794;2023-04-15T17:57:43;6.30;;;5.70;;
27758;SDS011;15148;48.972;12.794;2023-04-15T18:02:46;7.32;;;6.53;;
27758;SDS011;15148;48.972;12.794;2023-04-15T18:07:50;7.70;;;6.90;;
27758;SDS011;15148;48.972;12.794;2023-04-15T18:12:52;9.70;;;8.65;;
27758;SDS011;15148;48.972;12.794;2023-04-15T18:17:54;10.80;;;9.70;;
27758;SDS011;15148;48.972;12.794;2023-04-15T18:22:56;12.95;;;10.95;;
27758;SDS011;15148;48.972;12.794;2023-04-15T18:27:58;11.20;;;10.00;;
27758;SDS011;15148;48.972;12.794;2023-04-15T18:33:00;10.60;;;9.50;;
27758;SDS011;15148;48.972;12.794;2023-04-15T18:38:02;10.55;;;9.45;;
27758;SDS011;15148;48.972;12.794;2023-04-15T18:43:03;11.30;;;9.95;;
27758;SDS011;15148;48.972;12.794;2023-04-15T18:48:06;8.07;;;7.28;;
27758;SDS011;15148;48.972;12.794;2023-04-15T18:53:09;8.35;;;7.13;;
27758;SDS011;15148;48.972;12.794;2023-04-15T18:58:11;10.73;;;7.65;;
27758;SDS011;15148;48.972;12.794;2023-04-15T19:03:13;9.40;;;7.55;;
27758;SDS011;15148;48.972;12.794;2023-04-15T19:08:16;9.55;;;7.80;;
27758;SDS011;15148;48.972;12.794;2023-04-15T19:13:18;10.77;;;8.32;;
27758;SDS011;15148;48.972;12.794;2023-04-15T19:18:21;8.85;;;7.95;;
27758;SDS011;15148;48.972;12.794;2023-04-15T19:23:23;7.53;;;6.32;;
27758;SDS011;15148;48.972;12.794;2023-04-15T19:28:25;6.57;;;5.65;;
27758;SDS011;15148;48.972;12.794;2023-04-15T19:33:28;10.07;;;8.82;;
27758;SDS011;15148;48.972;12.794;2023-04-15T19:38:33;8.77;;;7.63;;
27758;SDS011;15148;48.972;12.794;2023-04-15T19:43:38;9.18;;;8.02;;
27758;SDS011;15148;48.972;12.794;2023-04-15T19:48:39;7.35;;;6.47;;
27758;SDS011;15148;48.972;12.794;2023-04-15T19:53:41;7.72;;;6.97;;
27758;SDS011;15148;48.972;12.794;2023-04-15T19:58:43;8.63;;;7.20;;
27758;SDS011;15148;48.972;12.794;2023-04-15T20:03:47;7.18;;;6.35;;
27758;SDS011;15148;48.972;12.794;2023-04-15T20:08:49;10.18;;;8.52;;
27758;SDS011;15148;48.972;12.794;2023-04-15T20:13:52;9.40;;;7.35;;
27758;SDS011;15148;48.972;12.794;2023-04-15T20:18:53;11.10;;;8.55;;
27758;SDS011;15148;48.972;12.794;2023-04-15T20:23:55;8.55;;;7.63;;
27758;SDS011;15148;48.972;12.794;2023-04-15T20:28:57;7.18;;;6.47;;
27758;SDS011;15148;48.972;12.794;2023-04-15T20:34:00;7.38;;;6.60;;
27758;SDS011;15148;48.972;12.794;2023-04-15T20:39:02;10.93;;;7.25;;
27758;SDS011;15148;48.972;12.794;2023-04-15T20:44:04;7.63;;;6.72;;
27758;SDS011;15148;48.972;12.794;2023-04-15T20:49:06;7.07;;;6.00;;
27758;SDS011;15148;48.972;12.794;2023-04-15T20:54:10;8.57;;;7.32;;
27758;SDS011;15148;48.972;12.794;2023-04-15T20:59:12;8.57;;;7.72;;
27758;SDS011;15148;48.972;12.794;2023-04-15T21:04:14;8.98;;;8.07;;
27758;SDS011;15148;48.972;12.794;2023-04-15T21:09:16;8.15;;;7.35;;
27758;SDS011;15148;48.972;12.794;2023-04-15T21:14:19;9.00;;;8.20;;
27758;SDS011;15148;48.972;12.794;2023-04-15T21:19:20;8.07;;;7.35;;
27758;SDS011;15148;48.972;12.794;2023-04-15T21:24:22;8.27;;;7.47;;
27758;SDS011;15148;48.972;12.794;2023-04-15T21:29:24;7.50;;;6.70;;
27758;SDS011;15148;48.972;12.794;2023-04-15T21:34:26;7.07;;;6.38;;
27758;SDS011;15148;48.972;12.794;2023-04-15T21:39:28;7.30;;;6.60;;
27758;SDS011;15148;48.972;12.794;2023-04-15T21:44:29;9.60;;;7.57;;
27758;SDS011;15148;48.972;12.794;2023-04-15T21:49:31;7.68;;;6.97;;
27758;SDS011;15148;48.972;12.794;2023-04-15T21:54:33;10.98;;;5.50;;
27758;SDS011;15148;48.972;12.794;2023-04-15T21:59:37;7.32;;;6.63;;
27758;SDS011;15148;48.972;12.794;2023-04-15T22:04:38;8.65;;;7.75;;
27758;SDS011;15148;48.972;12.794;2023-04-15T22:09:40;7.10;;;6.40;;
27758;SDS011;15148;48.972;12.794;2023-04-15T22:14:42;6.68;;;5.97;;
27758;SDS011;15148;48.972;12.794;2023-04-15T22:19:44;7.25;;;6.55;;
27758;SDS011;15148;48.972;12.794;2023-04-15T22:24:46;7.00;;;5.95;;
27758;SDS011;15148;48.972;12.794;2023-04-15T22:29:48;9.07;;;6.72;;
27758;SDS011;15148;48.972;12.794;2023-04-15T22:34:50;5.97;;;5.38;;
27758;SDS011;15148;48.972;12.794;2023-04-15T22:39:52;6.68;;;5.50;;
27758;SDS011;15148;48.972;12.794;2023-04-15T22:44:54;8.70;;;7.80;;
27758;SDS011;15148;48.972;12.794;2023-04-15T22:49:56;12.40;;;7.82;;
27758;SDS011;15148;48.972;12.794;2023-04-15T22:54:58;6.95;;;6.00;;
27758;SDS011;15148;48.972;12.794;2023-04-15T23:00:02;5.63;;;5.13;;
27758;SDS011;15148;48.972;12.794;2023-04-15T23:05:04;5.88;;;5.25;;
27758;SDS011;15148;48.972;12.794;2023-04-15T23:10:13;6.03;;;5.25;;
27758;SDS011;15148;48.972;12.794;2023-04-15T23:15:18;5.43;;;4.93;;
27758;SDS011;15148;48.972;12.794;2023-04-15T23:20:19;6.18;;;5.63;;
27758;SDS011;15148;48.972;12.794;2023-04-15T23:25:21;9.30;;;6.72;;
27758;SDS011;15148;48.972;12.794;2023-04-15T23:30:23;5.63;;;5.13;;
27758;SDS011;15148;48.972;12.794;2023-04-15T23:35:25;6.25;;;5.65;;
27758;SDS011;15148;48.972;12.794;2023-04-15T23:40:27;6.00;;;5.47;;
27758;SDS011;15148;48.972;12.794;2023-04-15T23:45:29;6.82;;;6.22;;
27758;SDS011;15148;48.972;12.794;2023-04-15T23:50:31;7.13;;;6.43;;
27758;SDS011;15148;48.972;12.794;2023-04-15T23:55:32;8.73;;;7.68;;
